sensor_id;sensor_type;location;lat;lon;timestamp;pressure;altitude;pressure_sealevel;temperature;humidity
44079;BME280;29744;49.078;12.878;2023-01-30T00:02:20;96832.97;;;14.85;33.47
44079;BME280;29744;49.078;12.878;2023-01-30T00:07:20;96812.00;;;14.81;33.74
44079;BME280;29744;49.078;12.878;2023-01-30T00:12:20;96797.25;;;14.79;33.58
44079;BME280;29744;49.078;12.878;2023-01-30T00:17:20;96789.47;;;14.77;33.96
44079;BME280;29744;49.078;12.878;2023-01-30T00:22:21;96784.22;;;14.72;33.52
44079;BME280;29744;49.078;12.878;2023-01-30T00:27:21;96782.94;;;14.70;33.69
44079;BME280;29744;49.078;12.878;2023-01-30T00:32:21;96781.66;;;14.67;34.08
44079;BME280;29744;49.078;12.878;2023-01-30T00:37:25;96778.81;;;14.64;33.83
44079;BME280;29744;49.078;12.878;2023-01-30T00:42:25;96770.22;;;14.62;34.19
44079;BME280;29744;49.078;12.878;2023-01-30T00:47:45;96758.47;;;14.58;34.14
44079;BME280;29744;49.078;12.878;2023-01-30T00:52:47;96757.19;;;14.55;34.21
44079;BME280;29744;49.078;12.878;2023-01-30T00:57:47;96759.41;;;14.53;33.84
44079;BME280;29744;49.078;12.878;2023-01-30T01:02:47;96750.84;;;14.51;34.02
44079;BME280;29744;49.078;12.878;2023-01-30T01:07:48;96729.09;;;14.47;33.79
44079;BME280;29744;49.078;12.878;2023-01-30T01:12:49;96715.13;;;14.45;34.26
44079;BME280;29744;49.078;12.878;2023-01-30T01:17:51;96726.22;;;14.44;33.87
44079;BME280;29744;49.078;12.878;2023-01-30T01:22:54;96711.47;;;14.41;33.81
44079;BME280;29744;49.078;12.878;2023-01-30T01:27:54;96700.50;;;14.38;34.28
44079;BME280;29744;49.078;12.878;2023-01-30T01:32:55;96690.03;;;14.36;34.22
44079;BME280;29744;49.078;12.878;2023-01-30T01:37:55;96670.97;;;14.33;34.19
44079;BME280;29744;49.078;12.878;2023-01-30T01:42:56;96687.50;;;14.31;34.22
44079;BME280;29744;49.078;12.878;2023-01-30T01:48:01;96686.22;;;14.29;34.37
44079;BME280;29744;49.078;12.878;2023-01-30T01:53:03;96692.25;;;14.26;34.25
44079;BME280;29744;49.078;12.878;2023-01-30T01:58:13;96689.84;;;14.24;34.07
44079;BME280;29744;49.078;12.878;2023-01-30T02:03:18;96693.66;;;14.23;34.01
44079;BME280;29744;49.078;12.878;2023-01-30T02:08:27;96714.25;;;14.19;34.28
44079;BME280;29744;49.078;12.878;2023-01-30T02:13:30;96717.25;;;14.17;34.53
44079;BME280;29744;49.078;12.878;2023-01-30T02:18:33;96722.97;;;14.16;34.34
44079;BME280;29744;49.078;12.878;2023-01-30T02:24:09;96730.09;;;14.12;34.44
44079;BME280;29744;49.078;12.878;2023-01-30T02:34:56;96716.75;;;14.07;34.57
44079;BME280;29744;49.078;12.878;2023-01-30T02:40:04;96715.97;;;14.06;34.30
44079;BME280;29744;49.078;12.878;2023-01-30T02:50:39;96721.19;;;14.03;34.66
44079;BME280;29744;49.078;12.878;2023-01-30T02:55:41;96693.75;;;14.01;34.67
44079;BME280;29744;49.078;12.878;2023-01-30T03:00:54;96688.66;;;13.99;34.44
44079;BME280;29744;49.078;12.878;2023-01-30T03:06:24;96668.03;;;13.95;34.48
44079;BME280;29744;49.078;12.878;2023-01-30T03:12:21;96659.94;;;13.95;34.20
44079;BME280;29744;49.078;12.878;2023-01-30T03:16:57;96675.34;;;13.94;34.62
44079;BME280;29744;49.078;12.878;2023-01-30T03:21:59;96664.06;;;13.92;34.46
44079;BME280;29744;49.078;12.878;2023-01-30T03:27:11;96642.81;;;13.91;34.71
44079;BME280;29744;49.078;12.878;2023-01-30T03:32:11;96621.56;;;13.89;34.37
44079;BME280;29744;49.078;12.878;2023-01-30T03:37:11;96603.78;;;13.88;34.56
44079;BME280;29744;49.078;12.878;2023-01-30T03:42:12;96569.06;;;13.86;34.83
44079;BME280;29744;49.078;12.878;2023-01-30T03:47:12;96557.50;;;13.86;34.58
44079;BME280;29744;49.078;12.878;2023-01-30T03:52:12;96570.50;;;13.84;34.51
44079;BME280;29744;49.078;12.878;2023-01-30T03:57:13;96629.31;;;13.82;34.72
44079;BME280;29744;49.078;12.878;2023-01-30T04:02:13;96639.31;;;13.81;34.68
44079;BME280;29744;49.078;12.878;2023-01-30T04:07:14;96663.84;;;13.80;34.81
44079;BME280;29744;49.078;12.878;2023-01-30T04:12:14;96631.81;;;13.78;34.75
44079;BME280;29744;49.078;12.878;2023-01-30T04:17:14;96603.28;;;13.77;34.80
44079;BME280;29744;49.078;12.878;2023-01-30T04:22:15;96579.31;;;13.76;34.53
44079;BME280;29744;49.078;12.878;2023-01-30T04:27:15;96560.78;;;13.74;34.61
44079;BME280;29744;49.078;12.878;2023-01-30T04:32:15;96562.69;;;13.74;34.71
44079;BME280;29744;49.078;12.878;2023-01-30T04:37:15;96538.72;;;13.72;34.55
44079;BME280;29744;49.078;12.878;2023-01-30T04:42:16;96548.72;;;13.72;34.91
44079;BME280;29744;49.078;12.878;2023-01-30T04:47:16;96517.66;;;13.74;34.52
44079;BME280;29744;49.078;12.878;2023-01-30T04:52:16;96516.69;;;13.79;34.41
44079;BME280;29744;49.078;12.878;2023-01-30T04:57:17;96511.66;;;13.86;34.43
44079;BME280;29744;49.078;12.878;2023-01-30T05:02:17;96502.47;;;13.96;34.60
44079;BME280;29744;49.078;12.878;2023-01-30T05:07:17;96514.19;;;14.08;34.36
44079;BME280;29744;49.078;12.878;2023-01-30T05:12:17;96504.84;;;14.23;34.91
44079;BME280;29744;49.078;12.878;2023-01-30T05:17:18;96502.75;;;14.37;34.60
44079;BME280;29744;49.078;12.878;2023-01-30T05:22:18;96500.81;;;14.55;34.45
44079;BME280;29744;49.078;12.878;2023-01-30T05:27:18;96487.25;;;14.72;34.53
44079;BME280;29744;49.078;12.878;2023-01-30T05:32:19;96480.34;;;14.92;34.43
44079;BME280;29744;49.078;12.878;2023-01-30T05:37:19;96481.88;;;15.10;34.01
44079;BME280;29744;49.078;12.878;2023-01-30T05:42:20;96482.25;;;15.30;34.10
44079;BME280;29744;49.078;12.878;2023-01-30T05:47:20;96488.00;;;15.49;34.12
44079;BME280;29744;49.078;12.878;2023-01-30T05:52:20;96492.97;;;15.68;33.88
44079;BME280;29744;49.078;12.878;2023-01-30T05:57:20;96494.44;;;15.86;33.49
44079;BME280;29744;49.078;12.878;2023-01-30T06:02:21;96505.59;;;16.05;33.69
44079;BME280;29744;49.078;12.878;2023-01-30T06:07:21;96493.81;;;16.22;33.54
44079;BME280;29744;49.078;12.878;2023-01-30T06:12:21;96483.94;;;16.38;33.08
44079;BME280;29744;49.078;12.878;2023-01-30T06:17:22;96455.47;;;16.53;33.06
44079;BME280;29744;49.078;12.878;2023-01-30T06:22:22;96463.66;;;16.65;33.11
44079;BME280;29744;49.078;12.878;2023-01-30T06:27:22;96454.28;;;16.75;32.55
44079;BME280;29744;49.078;12.878;2023-01-30T06:32:23;96473.47;;;16.82;32.85
44079;BME280;29744;49.078;12.878;2023-01-30T06:37:23;96474.03;;;16.88;32.69
44079;BME280;29744;49.078;12.878;2023-01-30T06:42:23;96440.53;;;16.92;32.55
44079;BME280;29744;49.078;12.878;2023-01-30T06:47:23;96469.66;;;16.95;32.19
44079;BME280;29744;49.078;12.878;2023-01-30T06:52:24;96443.34;;;16.96;32.15
44079;BME280;29744;49.078;12.878;2023-01-30T06:57:24;96435.22;;;16.96;32.19
44079;BME280;29744;49.078;12.878;2023-01-30T07:02:29;96447.19;;;16.95;32.26
44079;BME280;29744;49.078;12.878;2023-01-30T07:07:33;96444.81;;;16.93;32.30
44079;BME280;29744;49.078;12.878;2023-01-30T07:12:34;96436.56;;;16.90;32.64
44079;BME280;29744;49.078;12.878;2023-01-30T07:17:35;96434.53;;;16.87;32.36
44079;BME280;29744;49.078;12.878;2023-01-30T07:22:35;96425.50;;;16.83;32.55
44079;BME280;29744;49.078;12.878;2023-01-30T07:27:35;96428.91;;;16.80;32.09
44079;BME280;29744;49.078;12.878;2023-01-30T07:32:36;96419.41;;;16.73;32.37
44079;BME280;29744;49.078;12.878;2023-01-30T07:37:36;96401.13;;;16.70;32.42
44079;BME280;29744;49.078;12.878;2023-01-30T07:42:36;96417.94;;;16.64;32.64
44079;BME280;29744;49.078;12.878;2023-01-30T07:47:37;96425.97;;;16.60;32.29
44079;BME280;29744;49.078;12.878;2023-01-30T07:52:37;96425.69;;;16.53;32.69
44079;BME280;29744;49.078;12.878;2023-01-30T07:57:37;96429.41;;;16.49;32.42
44079;BME280;29744;49.078;12.878;2023-01-30T08:02:38;96425.34;;;16.42;32.37
44079;BME280;29744;49.078;12.878;2023-01-30T08:07:38;96435.56;;;16.37;32.73
44079;BME280;29744;49.078;12.878;2023-01-30T08:12:40;96425.75;;;16.32;32.48
44079;BME280;29744;49.078;12.878;2023-01-30T08:17:43;96421.66;;;16.26;32.75
44079;BME280;29744;49.078;12.878;2023-01-30T08:22:43;96431.91;;;16.21;32.69
44079;BME280;29744;49.078;12.878;2023-01-30T08:27:43;96419.72;;;16.15;32.63
44079;BME280;29744;49.078;12.878;2023-01-30T08:32:44;96415.66;;;16.08;32.97
44079;BME280;29744;49.078;12.878;2023-01-30T08:37:44;96403.47;;;16.02;32.67
44079;BME280;29744;49.078;12.878;2023-01-30T08:42:44;96407.94;;;15.98;32.93
44079;BME280;29744;49.078;12.878;2023-01-30T08:47:45;96380.66;;;15.91;32.76
44079;BME280;29744;49.078;12.878;2023-01-30T08:52:45;96383.25;;;15.88;32.51
44079;BME280;29744;49.078;12.878;2023-01-30T08:57:46;96351.78;;;15.83;32.93
44079;BME280;29744;49.078;12.878;2023-01-30T09:02:47;96362.00;;;15.77;32.71
44079;BME280;29744;49.078;12.878;2023-01-30T09:07:47;96344.06;;;15.73;32.64
44079;BME280;29744;49.078;12.878;2023-01-30T09:12:47;96314.53;;;15.68;33.05
44079;BME280;29744;49.078;12.878;2023-01-30T09:17:48;96314.09;;;15.66;32.81
44079;BME280;29744;49.078;12.878;2023-01-30T09:22:48;96301.22;;;15.63;33.27
44079;BME280;29744;49.078;12.878;2023-01-30T09:27:49;96308.09;;;15.60;33.05
44079;BME280;29744;49.078;12.878;2023-01-30T09:32:49;96299.06;;;15.56;32.78
44079;BME280;29744;49.078;12.878;2023-01-30T09:37:52;96324.06;;;15.53;33.01
44079;BME280;29744;49.078;12.878;2023-01-30T09:43:10;96334.28;;;15.48;33.29
44079;BME280;29744;49.078;12.878;2023-01-30T09:59:04;96302.16;;;15.34;33.48
44079;BME280;29744;49.078;12.878;2023-01-30T10:04:13;96311.72;;;15.31;33.21
44079;BME280;29744;49.078;12.878;2023-01-30T10:09:24;96321.94;;;15.26;33.43
44079;BME280;29744;49.078;12.878;2023-01-30T10:20:19;96302.63;;;15.15;33.03
44079;BME280;29744;49.078;12.878;2023-01-30T10:25:31;96299.47;;;15.13;33.36
44079;BME280;29744;49.078;12.878;2023-01-30T10:30:33;96277.41;;;15.11;33.65
44079;BME280;29744;49.078;12.878;2023-01-30T10:35:35;96282.66;;;15.07;33.32
44079;BME280;29744;49.078;12.878;2023-01-30T10:40:41;96276.03;;;15.05;33.30
44079;BME280;29744;49.078;12.878;2023-01-30T10:45:46;96266.97;;;15.01;33.43
44079;BME280;29744;49.078;12.878;2023-01-30T10:50:59;96277.38;;;14.90;33.41
44079;BME280;29744;49.078;12.878;2023-01-30T10:56:14;96260.06;;;14.91;33.30
44079;BME280;29744;49.078;12.878;2023-01-30T11:01:21;96259.59;;;14.89;33.86
44079;BME280;29744;49.078;12.878;2023-01-30T11:06:24;96249.91;;;14.88;33.34
44079;BME280;29744;49.078;12.878;2023-01-30T11:16:45;96215.34;;;14.81;33.74
44079;BME280;29744;49.078;12.878;2023-01-30T11:21:51;96226.03;;;14.78;33.93
44079;BME280;29744;49.078;12.878;2023-01-30T11:26:53;96227.47;;;14.75;33.67
44079;BME280;29744;49.078;12.878;2023-01-30T11:31:55;96221.59;;;14.73;33.66
44079;BME280;29744;49.078;12.878;2023-01-30T11:37:35;96202.91;;;14.68;33.45
44079;BME280;29744;49.078;12.878;2023-01-30T11:42:34;96210.56;;;14.66;33.87
44079;BME280;29744;49.078;12.878;2023-01-30T11:47:35;96189.63;;;14.63;33.74
44079;BME280;29744;49.078;12.878;2023-01-30T11:52:36;96174.88;;;14.61;33.89
44079;BME280;29744;49.078;12.878;2023-01-30T11:57:39;96180.94;;;14.58;33.97
44079;BME280;29744;49.078;12.878;2023-01-30T12:02:42;96178.56;;;14.56;33.94
44079;BME280;29744;49.078;12.878;2023-01-30T12:07:43;96178.88;;;14.55;33.94
44079;BME280;29744;49.078;12.878;2023-01-30T12:12:49;96182.56;;;14.50;33.84
44079;BME280;29744;49.078;12.878;2023-01-30T12:18:30;96177.06;;;14.46;33.90
44079;BME280;29744;49.078;12.878;2023-01-30T12:23:42;96162.78;;;14.46;33.79
44079;BME280;29744;49.078;12.878;2023-01-30T12:28:52;96163.44;;;14.43;34.18
44079;BME280;29744;49.078;12.878;2023-01-30T12:33:55;96162.97;;;14.41;34.38
44079;BME280;29744;49.078;12.878;2023-01-30T12:50:16;96134.16;;;14.33;34.05
44079;BME280;29744;49.078;12.878;2023-01-30T12:55:35;96118.28;;;14.31;34.15
44079;BME280;29744;49.078;12.878;2023-01-30T13:22:05;96138.31;;;14.22;34.61
44079;BME280;29744;49.078;12.878;2023-01-30T13:27:15;96141.69;;;14.18;34.45
44079;BME280;29744;49.078;12.878;2023-01-30T13:32:47;96124.56;;;14.14;34.34
44079;BME280;29744;49.078;12.878;2023-01-30T13:37:50;96143.44;;;14.14;34.46
44079;BME280;29744;49.078;12.878;2023-01-30T13:43:01;96156.47;;;14.12;34.62
44079;BME280;29744;49.078;12.878;2023-01-30T13:53:17;96121.75;;;14.11;34.65
44079;BME280;29744;49.078;12.878;2023-01-30T13:58:33;96120.81;;;14.07;34.49
44079;BME280;29744;49.078;12.878;2023-01-30T14:03:42;96130.81;;;14.06;34.67
44079;BME280;29744;49.078;12.878;2023-01-30T14:13:51;96172.25;;;14.02;34.28
44079;BME280;29744;49.078;12.878;2023-01-30T14:18:53;96184.47;;;13.99;34.33
44079;BME280;29744;49.078;12.878;2023-01-30T14:24:02;96174.81;;;13.98;34.92
44079;BME280;29744;49.078;12.878;2023-01-30T14:29:05;96172.75;;;13.95;34.35
44079;BME280;29744;49.078;12.878;2023-01-30T14:34:45;96165.31;;;13.92;34.78
44079;BME280;29744;49.078;12.878;2023-01-30T14:39:50;96166.44;;;13.91;34.42
44079;BME280;29744;49.078;12.878;2023-01-30T14:45:14;96175.16;;;13.88;34.76
44079;BME280;29744;49.078;12.878;2023-01-30T14:50:20;96173.00;;;13.73;32.06
44079;BME280;29744;49.078;12.878;2023-01-30T14:55:23;96176.78;;;13.25;31.90
44079;BME280;29744;49.078;12.878;2023-01-30T15:00:28;96196.47;;;13.00;31.48
44079;BME280;29744;49.078;12.878;2023-01-30T15:05:33;96198.06;;;12.92;31.68
44079;BME280;29744;49.078;12.878;2023-01-30T15:26:36;96237.31;;;13.10;31.98
44079;BME280;29744;49.078;12.878;2023-01-30T15:31:52;96250.44;;;13.20;32.30
44079;BME280;29744;49.078;12.878;2023-01-30T15:36:53;96253.59;;;13.31;32.32
44079;BME280;29744;49.078;12.878;2023-01-30T15:42:00;96265.97;;;13.41;32.10
44079;BME280;29744;49.078;12.878;2023-01-30T15:47:19;96270.56;;;13.49;32.44
44079;BME280;29744;49.078;12.878;2023-01-30T15:52:36;96267.38;;;13.55;32.43
44079;BME280;29744;49.078;12.878;2023-01-30T15:57:39;96274.16;;;13.62;32.45
44079;BME280;29744;49.078;12.878;2023-01-30T16:02:41;96272.09;;;13.67;32.27
44079;BME280;29744;49.078;12.878;2023-01-30T16:07:43;96281.13;;;13.71;32.47
44079;BME280;29744;49.078;12.878;2023-01-30T16:12:44;96284.75;;;13.75;32.74
44079;BME280;29744;49.078;12.878;2023-01-30T16:17:59;96300.47;;;13.82;32.56
44079;BME280;29744;49.078;12.878;2023-01-30T16:23:00;96293.47;;;13.90;32.83
44079;BME280;29744;49.078;12.878;2023-01-30T16:28:01;96316.56;;;13.99;32.60
44079;BME280;29744;49.078;12.878;2023-01-30T16:33:05;96322.09;;;14.11;32.93
44079;BME280;29744;49.078;12.878;2023-01-30T16:38:29;96315.25;;;14.23;32.78
44079;BME280;29744;49.078;12.878;2023-01-30T16:43:31;96324.84;;;14.41;32.58
44079;BME280;29744;49.078;12.878;2023-01-30T16:48:34;96332.38;;;14.56;32.74
44079;BME280;29744;49.078;12.878;2023-01-30T16:53:35;96322.59;;;14.72;32.61
44079;BME280;29744;49.078;12.878;2023-01-30T16:58:37;96319.78;;;14.90;32.64
44079;BME280;29744;49.078;12.878;2023-01-30T17:03:40;96321.59;;;15.06;32.45
44079;BME280;29744;49.078;12.878;2023-01-30T17:08:55;96327.66;;;15.24;32.17
44079;BME280;29744;49.078;12.878;2023-01-30T17:14:26;96332.13;;;15.41;32.40
44079;BME280;29744;49.078;12.878;2023-01-30T17:19:30;96324.97;;;15.57;32.39
44079;BME280;29744;49.078;12.878;2023-01-30T17:24:30;96339.13;;;15.75;32.15
44079;BME280;29744;49.078;12.878;2023-01-30T17:29:32;96342.78;;;15.91;31.97
44079;BME280;29744;49.078;12.878;2023-01-30T17:34:33;96361.09;;;16.06;31.86
44079;BME280;29744;49.078;12.878;2023-01-30T17:39:33;96337.22;;;16.21;32.19
44079;BME280;29744;49.078;12.878;2023-01-30T17:44:33;96353.91;;;16.35;31.81
44079;BME280;29744;49.078;12.878;2023-01-30T17:49:34;96348.19;;;16.49;31.85
44079;BME280;29744;49.078;12.878;2023-01-30T17:54:34;96357.94;;;16.62;31.92
44079;BME280;29744;49.078;12.878;2023-01-30T17:59:34;96384.22;;;16.73;31.39
44079;BME280;29744;49.078;12.878;2023-01-30T18:04:35;96396.19;;;16.85;31.52
44079;BME280;29744;49.078;12.878;2023-01-30T18:09:35;96393.78;;;16.95;31.24
44079;BME280;29744;49.078;12.878;2023-01-30T18:14:35;96392.88;;;17.03;31.48
44079;BME280;29744;49.078;12.878;2023-01-30T18:19:35;96394.22;;;17.10;31.74
44079;BME280;29744;49.078;12.878;2023-01-30T18:24:36;96394.34;;;17.13;31.26
44079;BME280;29744;49.078;12.878;2023-01-30T18:29:36;96378.19;;;17.17;31.01
44079;BME280;29744;49.078;12.878;2023-01-30T18:34:36;96387.91;;;17.18;31.23
44079;BME280;29744;49.078;12.878;2023-01-30T18:39:37;96390.25;;;17.19;31.28
44079;BME280;29744;49.078;12.878;2023-01-30T18:44:38;96395.22;;;17.17;31.13
44079;BME280;29744;49.078;12.878;2023-01-30T18:49:38;96390.16;;;17.16;31.37
44079;BME280;29744;49.078;12.878;2023-01-30T18:54:38;96408.69;;;17.14;31.51
44079;BME280;29744;49.078;12.878;2023-01-30T18:59:38;96418.28;;;17.11;31.52
44079;BME280;29744;49.078;12.878;2023-01-30T19:04:40;96416.25;;;17.08;31.30
44079;BME280;29744;49.078;12.878;2023-01-30T19:09:40;96423.59;;;17.08;31.25
44079;BME280;29744;49.078;12.878;2023-01-30T19:14:40;96435.22;;;17.08;31.29
44079;BME280;29744;49.078;12.878;2023-01-30T19:19:41;96452.59;;;17.07;31.30
44079;BME280;29744;49.078;12.878;2023-01-30T19:24:42;96450.34;;;17.09;31.40
44079;BME280;29744;49.078;12.878;2023-01-30T19:29:42;96460.06;;;17.10;31.00
44079;BME280;29744;49.078;12.878;2023-01-30T19:34:43;96456.22;;;17.11;31.31
44079;BME280;29744;49.078;12.878;2023-01-30T19:39:44;96463.22;;;17.12;31.25
44079;BME280;29744;49.078;12.878;2023-01-30T19:44:44;96474.06;;;17.12;31.09
44079;BME280;29744;49.078;12.878;2023-01-30T19:49:44;96477.88;;;17.11;31.04
44079;BME280;29744;49.078;12.878;2023-01-30T19:54:45;96493.69;;;17.09;31.12
44079;BME280;29744;49.078;12.878;2023-01-30T19:59:46;96496.28;;;17.05;31.51
44079;BME280;29744;49.078;12.878;2023-01-30T20:04:46;96496.97;;;17.02;31.48
44079;BME280;29744;49.078;12.878;2023-01-30T20:09:46;96513.91;;;16.99;31.46
44079;BME280;29744;49.078;12.878;2023-01-30T20:14:47;96516.50;;;16.96;31.48
44079;BME280;29744;49.078;12.878;2023-01-30T20:19:47;96532.97;;;16.91;31.45
44079;BME280;29744;49.078;12.878;2023-01-30T20:24:47;96520.09;;;16.88;31.35
44079;BME280;29744;49.078;12.878;2023-01-30T20:29:47;96534.31;;;16.85;31.50
44079;BME280;29744;49.078;12.878;2023-01-30T20:34:48;96527.97;;;16.81;31.30
44079;BME280;29744;49.078;12.878;2023-01-30T20:39:48;96530.56;;;16.77;31.84
44079;BME280;29744;49.078;12.878;2023-01-30T20:44:50;96546.38;;;16.75;31.77
44079;BME280;29744;49.078;12.878;2023-01-30T20:49:50;96537.78;;;16.73;31.63
44079;BME280;29744;49.078;12.878;2023-01-30T20:54:50;96551.66;;;16.71;31.37
44079;BME280;29744;49.078;12.878;2023-01-30T20:59:51;96548.50;;;16.69;31.48
44079;BME280;29744;49.078;12.878;2023-01-30T21:04:51;96568.56;;;16.68;31.71
44079;BME280;29744;49.078;12.878;2023-01-30T21:09:51;96561.56;;;16.67;32.02
44079;BME280;29744;49.078;12.878;2023-01-30T21:14:51;96573.06;;;16.64;31.83
44079;BME280;29744;49.078;12.878;2023-01-30T21:19:52;96591.25;;;16.64;31.64
44079;BME280;29744;49.078;12.878;2023-01-30T21:24:52;96593.81;;;16.60;31.75
44079;BME280;29744;49.078;12.878;2023-01-30T21:29:52;96587.50;;;16.56;31.83
44079;BME280;29744;49.078;12.878;2023-01-30T21:34:52;96584.63;;;16.53;31.86
44079;BME280;29744;49.078;12.878;2023-01-30T21:39:53;96598.03;;;16.49;32.19
44079;BME280;29744;49.078;12.878;2023-01-30T21:45:12;96587.41;;;16.44;32.18
44079;BME280;29744;49.078;12.878;2023-01-30T21:50:12;96625.97;;;16.41;31.76
44079;BME280;29744;49.078;12.878;2023-01-30T21:55:12;96599.88;;;16.36;31.98
44079;BME280;29744;49.078;12.878;2023-01-30T22:00:13;96618.22;;;16.31;31.71
44079;BME280;29744;49.078;12.878;2023-01-30T22:05:14;96628.91;;;16.27;31.98
44079;BME280;29744;49.078;12.878;2023-01-30T22:10:14;96612.88;;;16.22;31.84
44079;BME280;29744;49.078;12.878;2023-01-30T22:15:15;96609.56;;;16.17;32.15
44079;BME280;29744;49.078;12.878;2023-01-30T22:20:15;96629.50;;;16.12;32.26
44079;BME280;29744;49.078;12.878;2023-01-30T22:25:15;96638.59;;;16.07;32.55
44079;BME280;29744;49.078;12.878;2023-01-30T22:30:16;96622.56;;;16.02;32.04
44079;BME280;29744;49.078;12.878;2023-01-30T22:35:17;96627.03;;;15.98;32.32
44079;BME280;29744;49.078;12.878;2023-01-30T22:40:17;96624.53;;;15.93;32.36
44079;BME280;29744;49.078;12.878;2023-01-30T22:45:17;96621.56;;;15.86;32.36
44079;BME280;29744;49.078;12.878;2023-01-30T22:50:18;96634.16;;;15.82;32.17
44079;BME280;29744;49.078;12.878;2023-01-30T22:55:18;96640.81;;;15.76;32.54
44079;BME280;29744;49.078;12.878;2023-01-30T23:00:18;96643.72;;;15.71;32.33
44079;BME280;29744;49.078;12.878;2023-01-30T23:05:19;96642.00;;;15.66;32.53
44079;BME280;29744;49.078;12.878;2023-01-30T23:10:19;96665.06;;;15.64;32.35
44079;BME280;29744;49.078;12.878;2023-01-30T23:15:19;96663.34;;;15.59;32.90
44079;BME280;29744;49.078;12.878;2023-01-30T23:20:19;96662.41;;;15.55;32.72
44079;BME280;29744;49.078;12.878;2023-01-30T23:25:20;96676.22;;;15.54;32.67
44079;BME280;29744;49.078;12.878;2023-01-30T23:30:20;96669.09;;;15.49;32.72
44079;BME280;29744;49.078;12.878;2023-01-30T23:35:20;96675.16;;;15.46;32.66
44079;BME280;29744;49.078;12.878;2023-01-30T23:40:21;96685.81;;;15.42;32.96
44079;BME280;29744;49.078;12.878;2023-01-30T23:45:21;96684.88;;;15.38;32.74
44079;BME280;29744;49.078;12.878;2023-01-30T23:50:21;96694.75;;;15.34;33.05
44079;BME280;29744;49.078;12.878;2023-01-30T23:55:21;96696.50;;;15.30;32.62
